createdAt,value
2022-09-10T00:03:23.257Z,16.28
2022-09-10T00:08:24.958Z,16.18
2022-09-10T00:13:26.590Z,16.08
2022-09-10T00:18:29.351Z,15.98
2022-09-10T00:23:30.979Z,15.78
2022-09-10T00:28:32.609Z,15.61
2022-09-10T00:33:34.281Z,15.50
2022-09-10T00:38:35.971Z,15.58
2022-09-10T00:44:06.070Z,15.48
2022-09-10T00:49:23.546Z,15.56
2022-09-10T00:54:25.251Z,15.59
2022-09-10T00:59:26.883Z,15.54
2022-09-10T01:04:28.851Z,15.69
2022-09-10T01:09:30.615Z,15.75
2022-09-10T01:14:59.626Z,15.75
2022-09-10T01:20:25.950Z,15.66
2022-09-10T01:25:54.022Z,15.75
2022-09-10T01:30:58.138Z,15.71
2022-09-10T01:36:09.607Z,15.71
2022-09-10T01:41:11.250Z,15.68
2022-09-10T01:46:50.747Z,15.69
2022-09-10T01:52:12.222Z,15.69
2022-09-10T01:57:44.909Z,15.58
2022-09-10T02:03:02.910Z,15.63
2022-09-10T02:08:20.152Z,15.71
2022-09-10T02:13:22.719Z,15.75
2022-09-10T02:19:02.632Z,15.67
2022-09-10T02:24:06.618Z,15.64
2022-09-10T02:29:10.119Z,15.58
2022-09-10T02:34:15.756Z,15.45
2022-09-10T02:39:20.108Z,15.49
2022-09-10T02:44:22.002Z,15.43
2022-09-10T02:49:23.721Z,15.38
2022-09-10T02:54:26.280Z,15.39
2022-09-10T02:59:29.129Z,15.39
2022-09-10T03:04:32.070Z,15.43
2022-09-10T03:09:35.628Z,15.41
2022-09-10T03:14:37.369Z,15.41
2022-09-10T03:19:40.024Z,15.37
2022-09-10T03:24:41.994Z,15.35
2022-09-10T03:29:44.312Z,15.32
2022-09-10T03:34:47.485Z,15.31
2022-09-10T03:39:52.552Z,15.33
2022-09-10T03:44:56.258Z,15.38
2022-09-10T03:49:59.782Z,15.29
2022-09-10T03:55:01.555Z,15.27
2022-09-10T04:00:03.853Z,15.28
2022-09-10T04:05:17.492Z,15.33
2022-09-10T04:10:20.505Z,15.33
2022-09-10T04:15:23.519Z,15.33
2022-09-10T04:20:27.634Z,15.26
2022-09-10T04:25:36.177Z,15.27
2022-09-10T04:30:38.524Z,15.25
2022-09-10T04:35:40.239Z,15.20
2022-09-10T04:40:42.011Z,15.30
2022-09-10T04:45:43.779Z,15.24
2022-09-10T04:51:05.506Z,15.27
2022-09-10T04:56:12.811Z,15.27
2022-09-10T05:01:14.638Z,15.21
2022-09-10T05:06:18.817Z,15.24
2022-09-10T05:11:22.095Z,15.35
2022-09-10T05:16:23.844Z,15.36
2022-09-10T05:21:26.185Z,15.32
2022-09-10T05:26:29.895Z,15.41
2022-09-10T05:31:33.888Z,15.29
2022-09-10T05:36:36.292Z,15.37
2022-09-10T05:41:38.498Z,15.14
2022-09-10T05:46:40.441Z,15.14
2022-09-10T05:51:47.796Z,15.01
2022-09-10T05:56:51.149Z,15.04
2022-09-10T06:01:52.982Z,15.15
2022-09-10T06:06:56.342Z,15.19
2022-09-10T06:11:58.054Z,15.26
2022-09-10T06:16:59.904Z,15.31
2022-09-10T06:22:03.994Z,15.29
2022-09-10T06:27:10.754Z,15.37
2022-09-10T06:32:14.357Z,15.23
2022-09-10T06:37:18.639Z,15.38
2022-09-10T06:42:20.756Z,15.43
2022-09-10T06:53:28.636Z,15.57
2022-09-10T06:58:31.393Z,15.68
2022-09-10T07:03:33.657Z,15.80
2022-09-10T07:08:35.558Z,15.87
2022-09-10T07:13:37.800Z,16.08
2022-09-10T07:18:40.227Z,16.21
2022-09-10T07:23:44.303Z,16.32
2022-09-10T07:28:47.413Z,16.48
2022-09-10T07:33:50.131Z,16.47
2022-09-10T07:38:57.600Z,16.58
2022-09-10T07:44:00.098Z,16.70
2022-09-10T07:49:07.032Z,16.84
2022-09-10T07:54:08.792Z,17.09
2022-09-10T07:59:14.037Z,17.14
2022-09-10T08:04:20.870Z,17.19
2022-09-10T08:09:22.759Z,17.09
2022-09-10T08:14:29.005Z,17.16
2022-09-10T08:19:31.357Z,17.23
2022-09-10T08:24:33.148Z,17.39
2022-09-10T08:29:35.162Z,17.62
2022-09-10T08:34:37.060Z,17.68
2022-09-10T08:39:42.864Z,17.88
2022-09-10T08:45:10.675Z,18.00
2022-09-10T08:50:18.774Z,18.07
2022-09-10T08:55:21.543Z,18.20
2022-09-10T09:00:33.341Z,18.32
2022-09-10T09:05:52.191Z,18.31
2022-09-10T09:11:11.007Z,18.48
2022-09-10T09:16:26.072Z,18.60
2022-09-10T09:21:36.040Z,18.71
2022-09-10T09:26:37.987Z,18.96
2022-09-10T09:31:42.847Z,19.18
2022-09-10T09:36:48.437Z,19.25
2022-09-10T09:41:53.915Z,19.41
2022-09-10T09:46:56.611Z,19.59
2022-09-10T09:51:58.726Z,19.60
2022-09-10T09:57:01.517Z,19.71
2022-09-10T10:02:12.942Z,19.73
2022-09-10T10:07:14.603Z,19.90
2022-09-10T10:12:19.183Z,20.02
2022-09-10T10:17:34.923Z,19.96
2022-09-10T10:22:37.739Z,20.07
2022-09-10T10:27:42.639Z,20.17
2022-09-10T10:32:57.682Z,20.25
2022-09-10T10:38:31.132Z,20.38
2022-09-10T10:43:58.329Z,20.15
2022-09-10T10:49:19.852Z,20.19
2022-09-10T10:54:30.454Z,20.11
2022-09-10T10:59:46.172Z,20.13
2022-09-10T11:04:50.343Z,20.45
2022-09-10T11:10:02.326Z,20.62
2022-09-10T11:15:20.976Z,20.59
2022-09-10T11:20:31.214Z,20.59
2022-09-10T11:25:37.414Z,20.37
2022-09-10T11:30:39.191Z,20.42
2022-09-10T11:36:01.949Z,20.60
2022-09-10T11:41:14.632Z,20.65
2022-09-10T11:46:40.852Z,20.72
2022-09-10T11:51:42.525Z,20.90
2022-09-10T11:57:18.556Z,21.05
2022-09-10T12:07:40.449Z,21.69
2022-09-10T12:12:43.337Z,21.84
2022-09-10T12:17:46.008Z,22.01
2022-09-10T12:22:50.489Z,22.47
2022-09-10T12:27:53.443Z,23.26
2022-09-10T12:32:55.618Z,24.03
2022-09-10T12:38:35.690Z,23.87
2022-09-10T12:43:40.418Z,23.24
2022-09-10T12:48:55.311Z,23.04
2022-09-10T12:54:21.862Z,23.10
2022-09-10T13:00:02.369Z,22.87
2022-09-10T13:05:17.844Z,22.56
2022-09-10T13:10:24.049Z,22.82
2022-09-10T13:15:27.682Z,23.65
2022-09-10T13:20:31.840Z,23.61
2022-09-10T13:25:36.798Z,23.36
2022-09-10T13:30:38.487Z,23.38
2022-09-10T13:36:05.584Z,23.15
2022-09-10T13:41:31.691Z,23.26
2022-09-10T13:46:45.307Z,23.90
2022-09-10T13:51:51.850Z,24.63
2022-09-10T13:56:54.008Z,25.57
2022-09-10T14:01:55.941Z,25.51
2022-09-10T14:07:03.265Z,25.41
2022-09-10T14:12:06.486Z,25.69
2022-09-10T14:17:15.298Z,25.09
2022-09-10T14:22:25.149Z,24.75
2022-09-10T14:27:33.739Z,24.30
2022-09-10T14:32:37.276Z,23.85
2022-09-10T14:37:38.942Z,23.36
2022-09-10T14:42:40.550Z,23.16
2022-09-10T14:47:51.076Z,23.12
2022-09-10T14:52:52.828Z,23.32
2022-09-10T14:57:55.450Z,23.92
2022-09-10T15:02:57.272Z,24.19
2022-09-10T15:07:58.912Z,24.90
2022-09-10T15:13:00.565Z,25.49
2022-09-10T15:18:02.774Z,25.47
2022-09-10T15:23:04.407Z,25.01
2022-09-10T15:28:07.475Z,25.17
2022-09-10T15:33:12.327Z,24.39
2022-09-10T15:38:14.568Z,24.15
2022-09-10T15:43:19.087Z,23.65
2022-09-10T15:48:20.731Z,23.11
2022-09-10T15:53:22.388Z,22.98
2022-09-10T15:58:25.579Z,22.88
2022-09-10T16:03:27.401Z,22.67
2022-09-10T16:08:29.024Z,22.60
2022-09-10T16:13:30.667Z,22.51
2022-09-10T16:18:32.388Z,22.31
2022-09-10T16:23:34.335Z,22.16
2022-09-10T16:28:35.973Z,21.87
2022-09-10T16:33:37.578Z,21.59
2022-09-10T16:38:40.020Z,21.30
2022-09-10T16:43:42.052Z,21.20
2022-09-10T16:48:43.881Z,21.03
2022-09-10T16:53:47.914Z,20.82
2022-09-10T16:58:49.602Z,20.68
2022-09-10T17:03:51.987Z,20.60
2022-09-10T17:08:54.472Z,20.48
2022-09-10T17:13:58.990Z,20.43
2022-09-10T17:19:10.859Z,20.34
2022-09-10T17:24:12.933Z,20.28
2022-09-10T17:29:16.088Z,20.17
2022-09-10T17:34:18.132Z,20.05
2022-09-10T17:39:19.764Z,20.00
2022-09-10T17:44:21.734Z,19.88
2022-09-10T17:49:24.393Z,19.73
2022-09-10T17:54:26.067Z,19.59
2022-09-10T17:59:27.765Z,19.46
2022-09-10T18:04:29.627Z,19.41
2022-09-10T18:09:31.254Z,19.31
2022-09-10T18:14:32.869Z,19.18
2022-09-10T18:19:34.559Z,19.05
2022-09-10T18:24:37.492Z,19.01
2022-09-10T18:29:41.408Z,18.92
2022-09-10T18:34:43.054Z,18.90
2022-09-10T18:39:45.889Z,18.93
2022-09-10T18:44:47.597Z,19.02
2022-09-10T18:49:50.038Z,19.00
2022-09-10T18:54:51.652Z,18.93
2022-09-10T18:59:55.012Z,18.83
2022-09-10T19:05:12.646Z,18.75
2022-09-10T19:10:14.403Z,18.70
2022-09-10T19:15:16.024Z,18.59
2022-09-10T19:20:17.655Z,18.51
2022-09-10T19:25:19.286Z,18.40
2022-09-10T19:30:20.914Z,18.34
2022-09-10T19:35:22.529Z,18.26
2022-09-10T19:40:24.200Z,18.22
2022-09-10T19:45:27.226Z,18.11
2022-09-10T19:50:29.110Z,18.06
2022-09-10T19:55:30.717Z,17.91
2022-09-10T20:00:46.478Z,17.81
2022-09-10T20:05:49.211Z,17.64
2022-09-10T20:10:51.863Z,17.42
2022-09-10T20:15:53.825Z,17.35
2022-09-10T20:20:55.508Z,17.26
2022-09-10T20:25:58.051Z,17.18
2022-09-10T20:31:00.468Z,17.06
2022-09-10T20:36:03.719Z,16.93
2022-09-10T20:41:05.839Z,16.76
2022-09-10T20:46:15.886Z,16.59
2022-09-10T20:51:20.944Z,16.49
2022-09-10T20:56:23.000Z,16.44
2022-09-10T21:01:25.823Z,16.41
2022-09-10T21:06:29.014Z,16.40
2022-09-10T21:11:31.797Z,16.40
2022-09-10T21:16:41.190Z,16.34
2022-09-10T21:21:44.877Z,16.12
2022-09-10T21:26:46.533Z,15.85
2022-09-10T21:31:50.477Z,15.72
2022-09-10T21:36:52.109Z,15.53
2022-09-10T21:41:53.708Z,15.54
2022-09-10T21:46:55.459Z,15.52
2022-09-10T21:51:57.457Z,15.66
2022-09-10T21:56:59.061Z,15.76
2022-09-10T22:02:00.832Z,15.85
2022-09-10T22:07:04.828Z,15.88
2022-09-10T22:12:06.666Z,15.93
2022-09-10T22:17:08.302Z,16.02
2022-09-10T22:22:11.185Z,16.01
2022-09-10T22:27:12.888Z,16.00
2022-09-10T22:32:15.676Z,16.02
2022-09-10T22:37:17.856Z,16.05
2022-09-10T22:42:21.084Z,16.10
2022-09-10T22:47:22.682Z,16.00
2022-09-10T22:52:24.295Z,15.73
2022-09-10T22:57:25.969Z,15.66
2022-09-10T23:02:28.817Z,15.62
2022-09-10T23:07:30.442Z,15.42
2022-09-10T23:12:32.113Z,15.23
2022-09-10T23:17:34.148Z,15.16
2022-09-10T23:22:35.767Z,15.04
2022-09-10T23:27:37.389Z,14.88
2022-09-10T23:32:39.003Z,14.76
2022-09-10T23:37:40.629Z,14.70
2022-09-10T23:42:42.244Z,14.62
2022-09-10T23:47:43.833Z,14.58
2022-09-10T23:52:45.437Z,14.60
2022-09-10T23:57:47.274Z,14.46
